Flight Track Log - Related Links

Times and Time Zones

All times are in EDT time to prevent confusion due to time zone crossing. See the TAM3853 flight status page for this flight to view local times or setup timezone preferences in your user account.

Time Position Orientation Groundspeed Altitude Reporting Facility
EDT Latitude Longitude Course Direction KTS MPH feet Rate Location/Type
Sat 08:58:00 PM -16.6468 -47.1124 136° Southeast  Level Estimated
Sat 08:59:00 PM -16.7070 -47.0505 135° Southeast  Level Estimated
Sat 09:00:00 PM -16.7672 -46.9887 135° Southeast  Level Estimated
Sat 09:01:00 PM -16.8274 -46.9268 135° Southeast  Level Estimated
Sat 09:02:00 PM -16.8875 -46.8648 135° Southeast  Level Estimated
Sat 09:03:00 PM -16.9477 -46.8028 135° Southeast  Level Estimated
Sat 09:04:00 PM -17.0078 -46.7408 135° Southeast  Level Estimated
Sat 09:05:00 PM -17.0679 -46.6788 135° Southeast  Level Estimated
Sat 09:06:00 PM -17.1279 -46.6167 135° Southeast  Level Estimated
Sat 09:07:00 PM -17.1880 -46.5545 135° Southeast  Level Estimated
Sat 09:08:00 PM -17.2480 -46.4923 135° Southeast  Level Estimated
Sat 09:09:00 PM -17.3080 -46.4301 135° Southeast  Level Estimated
Sat 09:10:00 PM -17.3680 -46.3678 135° Southeast  Level Estimated
Sat 09:11:00 PM -17.4280 -46.3055 135° Southeast  Level Estimated
Sat 09:12:00 PM -17.4879 -46.2432 135° Southeast  Level Estimated
Sat 09:13:00 PM -17.5479 -46.1808 135° Southeast  Level Estimated
Sat 09:14:00 PM -17.6078 -46.1184 135° Southeast  Level Estimated
Sat 09:15:00 PM -17.6677 -46.0559 135° Southeast  Level Estimated
Sat 09:16:00 PM -17.7276 -45.9934 135° Southeast  Level Estimated
Sat 09:17:00 PM -17.7874 -45.9308 135° Southeast  Level Estimated
Sat 09:18:00 PM -17.8473 -45.8682 135° Southeast  Level Estimated
Sat 09:19:00 PM -17.9071 -45.8056 135° Southeast  Level Estimated
Sat 09:20:00 PM -17.9669 -45.7429 135° Southeast  Level Estimated
Sat 09:21:00 PM -18.0267 -45.6802 135° Southeast  Level Estimated
Sat 09:22:00 PM -18.0864 -45.6174 135° Southeast  Level Estimated
Sat 09:23:00 PM -18.1462 -45.5546 135° Southeast  Level Estimated
Sat 09:24:00 PM -18.2059 -45.4917 135° Southeast  Level Estimated
Sat 09:25:00 PM -18.2656 -45.4288 135° Southeast  Level Estimated
Sat 09:26:00 PM -18.3253 -45.3659 135° Southeast  Level Estimated
Sat 09:27:00 PM -18.3849 -45.3029 135° Southeast  Level Estimated
Sat 09:28:00 PM -18.4445 -45.2399 135° Southeast  Level Estimated
Sat 09:29:00 PM -18.5042 -45.1768 135° Southeast  Level Estimated
Sat 09:30:00 PM -18.5637 -45.1137 135° Southeast  Level Estimated
Sat 09:31:00 PM -18.6233 -45.0505 135° Southeast  Level Estimated
Sat 09:32:00 PM -18.6829 -44.9874 135° Southeast  Level Estimated
Sat 09:33:00 PM -18.7424 -44.9241 135° Southeast  Level Estimated
Sat 09:34:00 PM -18.8019 -44.8608 135° Southeast  Level Estimated
Sat 09:35:00 PM -18.8614 -44.7975 135° Southeast  Level Estimated
Sat 09:36:00 PM -18.9209 -44.7341 135° Southeast  Level Estimated
Sat 09:37:00 PM -18.9803 -44.6707 135° Southeast  Level Estimated
Sat 09:38:00 PM -19.0397 -44.6072 135° Southeast  Level Estimated
Sat 09:39:00 PM -19.0991 -44.5437 135° Southeast  Level Estimated
Sat 09:40:00 PM -19.1585 -44.4801 135° Southeast  Level Estimated
Sat 09:41:00 PM -19.2178 -44.4165 135° Southeast  Level Estimated
Sat 09:42:00 PM -19.2772 -44.3529 135° Southeast  Level Estimated
Sat 09:43:00 PM -19.3365 -44.2892 135° Southeast  Level Estimated
Sat 09:44:00 PM -19.3958 -44.2254 135° Southeast  Level Estimated
Sat 09:45:00 PM -19.4551 -44.1616 135° Southeast  Level Estimated
Sat 09:46:00 PM -19.5143 -44.0978 135° Southeast  Level Estimated
Sat 09:47:00 PM -19.5735 -44.0339 135° Southeast  Level Estimated
Sat 09:48:00 PM -19.6327 -43.9700 135° Southeast  Level Estimated
Sat 09:49:00 PM -19.6338 -43.9689 134° Southeast  Level Estimated
Sat 09:50:00 PM -19.6338 -43.9689 90° East  Level Estimated
Sat 09:51:00 PM -19.6338 -43.9689 90° East  Level Estimated
Sat 09:52:00 PM -19.6338 -43.9689 90° East  Level Estimated
Sat 09:53:00 PM -19.6338 -43.9689 90° East  Level Estimated
Sat 09:54:00 PM -19.6338 -43.9689 90° East  Level Estimated
Sat 09:55:00 PM -19.6338 -43.9689 90° East  Level Estimated
Sat 09:56:00 PM -19.6338 -43.9689 90° East  Level Estimated
Sat 09:57:00 PM -19.6338 -43.9689 90° East  Level Estimated
Sat 09:58:00 PM -19.6338 -43.9689 90° East  Level Estimated
Sat 09:59:00 PM -19.6338 -43.9689 90° East  Level Estimated
Sat 10:00:00 PM -19.6338 -43.9689 90° East  Level Estimated
Sat 10:01:00 PM -19.6338 -43.9689 90° East  Level Estimated
Sat 10:02:00 PM -19.6338 -43.9689 90° East  Level Estimated
Sat 10:03:00 PM -19.6338 -43.9689 90° East  Level Estimated
Sat 10:04:00 PM -19.6338 -43.9689 90° East  Level Estimated

Login

Don't have an account? Register now (free) for customized features, flight alerts, and more!